createdAt,value
2019-03-04T00:04:36.466Z,99398.95
2019-03-04T00:09:44.895Z,99366.14
2019-03-04T00:14:50.739Z,99355.96
2019-03-04T00:19:56.390Z,99366.29
2019-03-04T00:25:02.050Z,99343.09
2019-03-04T00:30:10.244Z,99332.48
2019-03-04T00:35:17.327Z,99328.13
2019-03-04T00:40:24.344Z,99331.12
2019-03-04T00:45:29.992Z,99326.19
2019-03-04T00:50:37.824Z,99316.24
2019-03-04T00:55:43.677Z,99321.78
2019-03-04T01:00:49.624Z,99300.71
2019-03-04T01:05:55.879Z,99293.28
2019-03-04T01:11:01.568Z,99258.74
2019-03-04T01:16:07.201Z,99261.79
2019-03-04T01:21:12.970Z,99248.69
2019-03-04T01:26:19.139Z,99246.70
2019-03-04T01:31:26.671Z,99241.73
2019-03-04T01:36:32.562Z,99228.47
2019-03-04T01:41:40.204Z,99203.28
2019-03-04T01:46:46.597Z,99170.22
2019-03-04T01:51:53.078Z,99178.39
2019-03-04T01:56:59.463Z,99178.09
2019-03-04T02:02:06.489Z,99187.05
2019-03-04T02:07:14.598Z,99201.95
2019-03-04T02:12:22.165Z,99191.64
2019-03-04T02:17:34.437Z,99173.48
2019-03-04T02:22:42.314Z,99183.01
2019-03-04T02:27:53.040Z,99203.70
2019-03-04T02:33:00.466Z,99223.05
2019-03-04T02:38:08.099Z,99207.02
2019-03-04T02:43:15.797Z,99208.41
2019-03-04T02:48:25.425Z,99189.85
2019-03-04T02:53:37.902Z,99168.61
2019-03-04T02:58:46.958Z,99172.30
2019-03-04T03:03:58.241Z,99143.79
2019-03-04T03:09:08.544Z,99135.62
2019-03-04T03:14:16.926Z,99114.09
2019-03-04T03:19:24.877Z,99088.63
2019-03-04T03:24:32.344Z,99102.64
2019-03-04T03:29:44.684Z,99083.39
2019-03-04T03:34:52.222Z,99060.31
2019-03-04T03:39:59.497Z,99061.92
2019-03-04T03:45:09.583Z,99044.02
2019-03-04T03:50:19.367Z,99036.47
2019-03-04T03:55:26.634Z,99032.20
2019-03-04T04:00:33.716Z,99049.31
2019-03-04T04:05:42.401Z,99030.41
2019-03-04T04:10:49.576Z,99033.59
2019-03-04T04:15:58.927Z,99012.21
2019-03-04T04:21:06.442Z,99002.06
2019-03-04T04:26:23.863Z,98986.36
2019-03-04T04:31:34.644Z,98963.41
2019-03-04T04:36:44.517Z,98947.83
2019-03-04T04:41:53.536Z,98942.89
2019-03-04T04:47:01.035Z,98940.98
2019-03-04T04:52:08.319Z,98929.91
2019-03-04T04:57:16.555Z,98913.11
2019-03-04T05:02:25.843Z,98926.13
2019-03-04T05:07:35.207Z,98915.50
2019-03-04T05:12:43.618Z,98909.61
2019-03-04T05:17:51.758Z,98923.75
2019-03-04T05:22:59.199Z,98897.17
2019-03-04T05:28:06.949Z,98890.11
2019-03-04T05:33:14.415Z,98865.70
2019-03-04T05:38:20.967Z,98882.33
2019-03-04T05:43:28.776Z,98864.50
2019-03-04T05:48:35.917Z,98872.71
2019-03-04T05:53:43.517Z,98849.22
2019-03-04T05:58:49.973Z,98856.44
2019-03-04T06:04:02.308Z,98846.00
2019-03-04T06:09:12.040Z,98842.02
2019-03-04T06:14:19.801Z,98837.53
2019-03-04T06:19:28.897Z,98821.45
2019-03-04T06:24:37.892Z,98796.70
2019-03-04T06:29:45.316Z,98768.45
2019-03-04T06:34:52.667Z,98793.05
2019-03-04T06:39:59.965Z,98781.63
2019-03-04T06:45:10.336Z,98780.27
2019-03-04T06:50:48.057Z,98756.17
2019-03-04T06:56:16.876Z,98770.53
2019-03-04T07:01:27.184Z,98750.09
2019-03-04T07:06:35.011Z,98737.53
2019-03-04T07:11:43.979Z,98707.23
2019-03-04T07:16:51.567Z,98709.63
2019-03-04T07:21:59.326Z,98700.85
2019-03-04T07:27:08.777Z,98714.27
2019-03-04T07:32:16.491Z,98692.31
2019-03-04T07:37:23.534Z,98675.37
2019-03-04T07:42:31.301Z,98649.08
2019-03-04T07:47:39.989Z,98637.55
2019-03-04T07:52:47.655Z,98619.42
2019-03-04T07:57:54.847Z,98592.41
2019-03-04T08:03:01.680Z,98594.19
2019-03-04T08:08:13.611Z,98582.07
2019-03-04T08:13:29.826Z,98590.87
2019-03-04T08:18:37.136Z,98563.27
2019-03-04T08:23:45.412Z,98544.58
2019-03-04T08:28:51.291Z,98512.96
2019-03-04T08:33:58.332Z,98486.94
2019-03-04T08:39:08.528Z,98532.55
2019-03-04T08:44:14.912Z,98467.80
2019-03-04T08:49:22.541Z,98443.95
2019-03-04T08:54:28.295Z,98394.32
2019-03-04T08:59:33.852Z,98449.23
2019-03-04T09:04:40.562Z,98440.05
2019-03-04T09:09:46.102Z,98412.84
2019-03-04T09:14:52.994Z,98418.59
2019-03-04T09:19:58.763Z,98395.36
2019-03-04T09:25:08.345Z,98369.41
2019-03-04T09:30:16.934Z,98383.95
2019-03-04T09:35:23.333Z,98380.00
2019-03-04T09:40:33.773Z,98376.45
2019-03-04T09:45:40.215Z,98376.04
2019-03-04T09:50:45.849Z,98377.79
2019-03-04T09:55:51.560Z,98368.59
2019-03-04T10:01:03.128Z,98362.87
2019-03-04T10:06:24.671Z,98353.63
2019-03-04T10:11:42.793Z,98331.69
2019-03-04T10:17:12.210Z,98319.34
2019-03-04T10:22:23.910Z,98278.01
2019-03-04T10:27:35.807Z,98273.61
2019-03-04T10:32:56.976Z,98281.98
2019-03-04T10:38:09.206Z,98261.03
2019-03-04T10:43:40.846Z,98249.41
2019-03-04T10:48:46.883Z,98299.98
2019-03-04T10:53:52.770Z,98273.86
2019-03-04T10:58:58.407Z,98246.38
2019-03-04T11:04:04.239Z,98261.97
2019-03-04T11:09:10.885Z,98241.55
2019-03-04T11:14:16.836Z,98229.70
2019-03-04T11:19:22.704Z,98272.22
2019-03-04T11:31:05.661Z,98440.61
2019-03-04T11:36:12.372Z,98452.78
2019-03-04T11:41:20.635Z,98435.83
2019-03-04T11:46:26.565Z,98531.80
2019-03-04T11:51:33.565Z,98450.47
2019-03-04T11:56:39.127Z,98410.73
2019-03-04T12:01:46.859Z,98429.46
2019-03-04T12:06:52.700Z,98415.38
2019-03-04T12:11:59.109Z,98381.39
2019-03-04T12:17:04.739Z,98395.03
2019-03-04T12:22:10.481Z,98385.37
2019-03-04T12:27:17.063Z,98354.33
2019-03-04T12:32:23.945Z,98356.02
2019-03-04T12:37:30.405Z,98342.72
2019-03-04T12:42:36.031Z,98350.25
2019-03-04T12:47:45.250Z,98335.89
2019-03-04T12:52:51.397Z,98338.88
2019-03-04T12:57:57.520Z,98303.33
2019-03-04T13:03:03.231Z,98329.43
2019-03-04T13:08:09.019Z,98302.72
2019-03-04T13:13:18.037Z,98286.48
2019-03-04T13:18:25.131Z,98267.33
2019-03-04T13:23:31.602Z,98265.70
2019-03-04T13:28:37.415Z,98258.25
2019-03-04T13:33:43.501Z,98271.95
2019-03-04T13:38:49.668Z,98263.27
2019-03-04T13:43:55.329Z,98257.55
2019-03-04T13:49:01.262Z,98250.04
2019-03-04T13:54:06.885Z,98232.98
2019-03-04T13:59:12.810Z,98206.12
2019-03-04T14:04:18.896Z,98231.34
2019-03-04T14:09:24.826Z,98206.31
2019-03-04T14:14:30.741Z,98197.88
2019-03-04T14:19:37.315Z,98203.70
2019-03-04T14:24:44.496Z,98193.86
2019-03-04T14:29:50.270Z,98208.91
2019-03-04T14:34:57.258Z,98232.34
2019-03-04T14:40:06.325Z,98224.90
2019-03-04T14:45:22.619Z,98210.94
2019-03-04T14:50:28.681Z,98256.16
2019-03-04T14:55:39.961Z,98245.95
2019-03-04T15:00:50.593Z,98221.39
2019-03-04T15:06:06.303Z,98218.78
2019-03-04T15:11:04.812Z,98248.75
2019-03-04T15:16:11.713Z,98218.45
2019-03-04T15:21:17.337Z,98206.02
2019-03-04T15:26:23.194Z,98203.29
2019-03-04T15:31:29.322Z,98212.11
2019-03-04T15:36:35.794Z,98189.91
2019-03-04T15:41:41.386Z,98179.17
2019-03-04T15:46:47.116Z,98191.52
2019-03-04T15:51:53.560Z,98203.16
2019-03-04T15:57:04.704Z,98176.78
2019-03-04T16:02:13.257Z,98174.52
2019-03-04T16:07:19.227Z,98273.75
2019-03-04T16:12:25.250Z,98438.66
2019-03-04T16:17:32.165Z,98410.50
2019-03-04T16:22:37.869Z,98435.16
2019-03-04T16:27:45.976Z,98446.43
2019-03-04T16:32:51.704Z,98436.96
2019-03-04T16:37:58.392Z,98439.33
2019-03-04T16:43:05.015Z,98458.44
2019-03-04T16:48:10.851Z,98458.48
2019-03-04T16:53:29.080Z,98464.16
2019-03-04T16:58:35.363Z,98470.00
2019-03-04T17:03:41.035Z,98475.02
2019-03-04T17:08:46.703Z,98479.31
2019-03-04T17:13:52.424Z,98495.34
2019-03-04T17:18:58.567Z,98495.08
2019-03-04T17:24:04.769Z,98488.12
2019-03-04T17:29:12.568Z,98508.14
2019-03-04T17:34:19.191Z,98510.80
2019-03-04T17:39:25.205Z,98528.80
2019-03-04T17:44:31.151Z,98540.09
2019-03-04T17:49:36.845Z,98557.36
2019-03-04T17:54:42.392Z,98552.82
2019-03-04T17:59:47.934Z,98574.67
2019-03-04T18:04:54.629Z,98566.75
2019-03-04T18:10:00.895Z,98569.91
2019-03-04T18:15:09.752Z,98577.46
2019-03-04T18:20:16.455Z,98629.61
2019-03-04T18:25:25.234Z,98611.08
2019-03-04T18:30:39.945Z,98614.63
2019-03-04T18:36:17.563Z,98600.49
2019-03-04T18:41:43.643Z,98593.58
2019-03-04T18:47:04.383Z,98597.11
2019-03-04T18:52:10.386Z,98619.88
2019-03-04T18:57:16.120Z,98611.08
2019-03-04T19:02:23.850Z,98614.45
2019-03-04T19:07:30.739Z,98629.21
2019-03-04T19:12:37.431Z,98634.97
2019-03-04T19:17:43.298Z,98637.22
2019-03-04T19:22:48.863Z,98664.60
2019-03-04T19:27:55.633Z,98666.56
2019-03-04T19:33:01.287Z,98681.83
2019-03-04T19:38:07.019Z,98710.38
2019-03-04T19:43:12.730Z,98691.05
2019-03-04T19:48:25.463Z,98697.48
2019-03-04T19:53:32.047Z,98711.19
2019-03-04T19:58:39.866Z,98706.33
2019-03-04T20:03:45.691Z,98713.23
2019-03-04T20:08:52.084Z,98699.61
2019-03-04T20:13:58.296Z,98727.34
2019-03-04T20:19:04.542Z,98749.03
2019-03-04T20:24:10.230Z,98746.91
2019-03-04T20:29:17.083Z,98735.93
2019-03-04T20:34:24.584Z,98747.70
2019-03-04T20:39:32.470Z,98729.71
2019-03-04T20:44:38.245Z,98755.77
2019-03-04T20:49:44.178Z,98762.69
2019-03-04T20:54:50.388Z,98778.80
2019-03-04T20:59:59.120Z,98776.20
2019-03-04T21:05:07.201Z,98796.34
2019-03-04T21:10:13.940Z,98786.44
2019-03-04T21:15:22.542Z,98802.45
2019-03-04T21:20:30.720Z,98807.77
2019-03-04T21:25:46.240Z,98820.09
2019-03-04T21:31:23.181Z,98816.38
2019-03-04T21:36:46.141Z,98815.78
2019-03-04T21:42:00.742Z,98833.93
2019-03-04T21:47:12.863Z,98825.04
2019-03-04T21:52:21.890Z,98829.66
2019-03-04T21:57:37.598Z,98846.05
2019-03-04T22:02:48.792Z,98856.92
2019-03-04T22:07:55.412Z,98860.48
2019-03-04T22:13:01.332Z,98902.05
2019-03-04T22:18:08.244Z,98886.04
2019-03-04T22:23:14.322Z,98890.73
2019-03-04T22:28:19.991Z,98907.58
2019-03-04T22:33:26.667Z,98923.30
2019-03-04T22:38:32.525Z,98948.45
2019-03-04T22:43:38.609Z,98929.41
2019-03-04T22:48:44.147Z,98934.29
2019-03-04T22:53:50.564Z,98994.98
2019-03-04T22:58:57.457Z,98976.96
2019-03-04T23:04:06.376Z,98991.83
2019-03-04T23:09:16.136Z,98966.33
2019-03-04T23:14:24.905Z,98989.08
2019-03-04T23:19:30.515Z,99005.78
2019-03-04T23:24:36.309Z,98981.52
2019-03-04T23:29:42.040Z,98985.14
2019-03-04T23:34:47.602Z,98981.48
2019-03-04T23:39:53.565Z,98982.57
2019-03-04T23:44:59.710Z,98995.36
2019-03-04T23:50:16.554Z,99002.64
2019-03-04T23:55:22.239Z,98999.00
